Time;durP1;ratioP1;P1;durP2;ratioP2;P2;SDS_P1;SDS_P2;PMS_P1;PMS_P2;Temp;Humidity;BMP_temperature;BMP_pressure;BME280_temperature;BME280_humidity;BME280_pressure;Samples;Min_cycle;Max_cycle;Signal;HPM_P1;HPM_P2
2023/03/25 00:02:00;;;;;;;;;30.67;29.00;;;;;14.39;71.31;98604.56;6283299;20;3579421;-58
2023/03/25 00:04:29;;;;;;;;;33.00;29.33;;;;;14.39;71.46;98597.31;6283233;20;3580491;-58
2023/03/25 00:06:58;;;;;;;;;32.33;28.67;;;;;14.33;71.57;98597.06;6281848;20;3587844;-56
2023/03/25 00:09:27;;;;;;;;;31.67;28.67;;;;;14.29;71.97;98596.47;6282700;20;3583597;-58
2023/03/25 00:11:56;;;;;;;;;34.67;30.00;;;;;14.24;72.07;98599.63;6282306;20;3600297;-58
2023/03/25 00:14:25;;;;;;;;;30.67;27.33;;;;;14.25;72.17;98606.72;6284448;20;3577398;-57
2023/03/25 00:16:54;;;;;;;;;33.00;30.00;;;;;14.25;72.37;98617.53;6276122;20;3608635;-58
2023/03/25 00:19:24;;;;;;;;;25.00;25.00;;;;;14.35;71.73;98616.66;6314268;20;3603480;-57
2023/03/25 00:21:53;;;;;;;;;31.00;30.00;;;;;14.46;71.70;98608.41;6279833;20;3599292;-58
2023/03/25 00:24:22;;;;;;;;;34.00;27.33;;;;;14.59;71.08;98614.38;6283827;20;3611745;-58
2023/03/25 00:26:52;;;;;;;;;32.00;30.33;;;;;14.63;71.08;98618.47;6281297;20;3577434;-58
2023/03/25 00:29:20;;;;;;;;;30.67;28.67;;;;;14.66;70.49;98615.47;6280314;20;3596085;-58
2023/03/25 00:31:49;;;;;;;;;35.33;30.33;;;;;14.69;70.35;98600.81;6280143;20;3605585;-56
2023/03/25 00:34:19;;;;;;;;;32.33;28.00;;;;;14.74;70.13;98594.97;6282204;20;3586705;-58
2023/03/25 00:36:47;;;;;;;;;27.00;24.67;;;;;14.68;70.41;98602.66;6280956;20;3605499;-58
2023/03/25 00:39:17;;;;;;;;;24.33;22.00;;;;;14.73;70.00;98598.69;6281159;20;2845210;-58
2023/03/25 00:41:47;;;;;;;;;24.00;22.67;;;;;14.78;69.92;98599.09;6311232;20;3591983;-58
2023/03/25 00:44:16;;;;;;;;;28.67;26.00;;;;;14.80;69.95;98603.34;6284079;20;3595106;-58
2023/03/25 00:46:46;;;;;;;;;23.33;23.33;;;;;14.74;70.17;98597.69;6278896;20;2844146;-58
2023/03/25 00:49:15;;;;;;;;;25.67;25.67;;;;;14.77;69.99;98608.19;6313126;20;3588858;-57
2023/03/25 00:51:44;;;;;;;;;28.50;24.50;;;;;14.83;69.68;98613.00;6278431;20;2847180;-58
2023/03/25 00:54:22;;;;;;;;;37.00;28.67;;;;;14.83;69.84;98611.16;6279698;20;3614853;-58
2023/03/25 00:56:52;;;;;;;;;28.67;27.33;;;;;14.79;70.37;98604.34;6281008;20;3591959;-58
2023/03/25 00:59:22;;;;;;;;;36.00;31.00;;;;;14.67;71.57;98595.56;6277798;20;3596118;-58
2023/03/25 01:01:52;;;;;;;;;32.33;31.00;;;;;14.64;70.82;98589.59;6310113;20;3577365;-58
2023/03/25 01:04:22;;;;;;;;;28.33;23.33;;;;;14.70;70.54;98589.88;6279687;20;3600270;-58
2023/03/25 01:06:50;;;;;;;;;23.33;21.67;;;;;14.73;70.41;98599.53;6317835;20;3576334;-58
2023/03/25 01:09:21;;;;;;;;;25.67;24.33;;;;;14.73;71.14;98590.59;6283470;20;2850248;-58
2023/03/25 01:11:49;;;;;;;;;21.00;19.00;;;;;14.70;70.78;98595.28;6317223;20;3568995;-59
2023/03/25 01:14:23;;;;;;;;;23.50;19.50;;;;;14.76;70.51;98599.22;6281894;20;2491993;-59
2023/03/25 01:16:52;;;;;;;;;24.50;21.00;;;;;14.74;70.98;98608.47;6286334;20;2850279;-57
2023/03/25 01:19:23;;;;;;;;;27.33;24.67;;;;;14.52;72.51;98599.69;6284428;20;2849278;-59
2023/03/25 01:21:51;;;;;;;;;25.67;23.67;;;;;14.64;71.80;98601.28;6316614;20;3584668;-59
2023/03/25 01:24:20;;;;;;;;;23.50;22.00;;;;;14.57;72.35;98599.31;6284592;20;2844141;-59
2023/03/25 01:26:49;;;;;;;;;17.50;17.50;;;;;14.63;71.92;98596.00;6280764;20;2829454;-59
2023/03/25 01:29:21;;;;;;;;;21.33;20.67;;;;;14.65;72.07;98588.63;6288176;20;3575279;-58
2023/03/25 01:31:50;;;;;;;;;21.00;21.00;;;;;14.48;72.85;98579.38;6280768;20;2833640;-59
2023/03/25 01:34:19;;;;;;;;;18.00;17.50;;;;;14.47;73.11;98588.47;6285879;20;2832587;-58
2023/03/25 01:36:49;;;;;;;;;22.00;22.00;;;;;14.28;74.35;98590.22;6284345;20;2850268;-59
2023/03/25 01:39:59;;;;;;;;;20.33;20.33;;;;;14.30;74.40;98591.91;6317571;20;3572209;-58
2023/03/25 01:42:28;;;;;;;;;25.67;22.67;;;;;14.28;74.35;98597.50;6283117;20;3578378;-58
2023/03/25 01:45:29;;;;;;;;;20.00;20.00;;;;;14.32;74.51;98595.34;6283499;20;3562928;-58
2023/03/25 01:48:09;;;;;;;;;21.00;16.67;;;;;14.60;72.69;98599.84;6314473;20;3579472;-58
2023/03/25 01:50:44;;;;;;;;;18.00;14.00;;;;;14.66;72.29;98612.75;6283489;20;2807560;-58
2023/03/25 01:53:12;;;;;;;;;12.00;12.00;;;;;14.76;71.56;98606.50;6286307;20;2788820;-58
2023/03/25 01:55:40;;;;;;;;;14.50;12.00;;;;;14.80;71.56;98606.06;6291202;20;2784674;-59
2023/03/25 01:58:17;;;;;;;;;9.00;9.00;;;;;14.96;70.72;98600.03;6326895;20;3472130;-58
2023/03/25 02:00:46;;;;;;;;;7.50;7.50;;;;;14.97;70.17;98606.28;6314601;20;2732613;-59
2023/03/25 02:03:18;;;;;;;;;9.00;9.00;;;;;14.92;70.52;98604.00;6284428;20;2755514;-57
2023/03/25 02:05:59;;;;;;;;;12.00;9.00;;;;;14.88;70.74;98603.47;6283899;20;2770125;-57
2023/03/25 02:08:38;;;;;;;;;9.40;9.40;;;;;14.83;71.52;98605.75;6309403;20;2776337;-58
2023/03/25 02:11:09;;;;;;;;;8.67;8.67;;;;;14.88;71.28;98602.63;6278525;20;2747384;-59
2023/03/25 02:13:40;;;;;;;;;11.00;7.50;;;;;14.83;71.14;98600.34;6318893;20;2755497;-59
2023/03/25 02:16:45;;;;;;;;;9.00;8.00;;;;;14.91;70.83;98602.31;6285299;20;2735693;-59
2023/03/25 02:19:39;;;;;;;;;6.50;6.50;;;;;14.97;70.52;98611.69;6283816;20;2746077;-58
2023/03/25 02:22:56;;;;;;;;;8.00;8.00;;;;;14.91;70.63;98605.03;6287804;20;2739890;-59
2023/03/25 02:26:23;;;;;;;;;8.00;8.00;;;;;14.93;71.32;98608.44;6285628;20;2733647;-59
2023/03/25 02:29:48;;;;;;;;;5.00;5.00;;;;;14.99;72.86;98609.69;6284734;20;2733631;-58
2023/03/25 02:33:02;;;;;;;;;6.50;6.00;;;;;15.03;74.01;98614.63;6290162;20;2739910;-59
2023/03/25 02:35:56;;;;;;;;;7.00;6.00;;;;;15.11;73.79;98632.78;6284329;20;2742106;-59
2023/03/25 02:39:04;;;;;;;;;6.00;6.00;;;;;15.01;74.06;98630.16;6285762;20;2737822;-59
2023/03/25 02:42:36;;;;;;;;;5.00;5.00;;;;;14.91;74.71;98623.94;6283802;20;2727486;-59
2023/03/25 02:45:28;;;;;;;;;4.00;4.00;;;;;14.85;76.09;98622.69;6280377;20;2744049;-58
2023/03/25 02:48:12;;;;;;;;;5.50;5.00;;;;;14.68;77.66;98618.03;6282904;20;2738919;-58
2023/03/25 02:50:51;;;;;;;;;7.00;7.00;;;;;14.65;79.23;98613.78;6282141;20;2748497;-58
2023/03/25 02:53:32;;;;;;;;;8.00;8.00;;;;;14.68;80.18;98618.03;6286498;20;2733773;-59
2023/03/25 02:56:08;;;;;;;;;7.00;6.00;;;;;14.62;80.56;98619.47;6282325;20;2739863;-59
2023/03/25 02:58:39;;;;;;;;;6.40;6.40;;;;;14.77;80.00;98621.69;6306074;20;2741961;-59
2023/03/25 03:01:08;;;;;;;;;9.00;8.00;;;;;14.68;81.37;98615.34;6309505;20;2749321;-59
2023/03/25 03:03:38;;;;;;;;;10.00;7.00;;;;;14.49;82.78;98616.22;6310802;20;2762861;-59
2023/03/25 03:06:17;;;;;;;;;9.00;7.80;;;;;14.35;83.38;98613.94;6308468;20;2750372;-59
2023/03/25 03:08:48;;;;;;;;;11.00;9.00;;;;;14.44;83.23;98615.78;6281158;20;2767054;-59
2023/03/25 03:11:31;;;;;;;;;8.00;7.00;;;;;14.30;83.64;98611.69;6285551;20;2741993;-59
2023/03/25 03:14:19;;;;;;;;;8.00;8.00;;;;;14.32;84.58;98622.34;6280796;20;2748258;-58
2023/03/25 03:17:32;;;;;;;;;8.00;8.00;;;;;14.41;83.96;98616.94;6283599;20;2738857;-58
2023/03/25 03:21:05;;;;;;;;;8.80;8.20;;;;;14.37;84.76;98617.34;6309511;20;2770115;-56
2023/03/25 03:24:18;;;;;;;;;10.29;9.43;;;;;14.21;85.80;98612.56;6323064;20;1791412;-58
2023/03/25 03:27:13;;;;;;;;;11.20;9.20;;;;;14.14;86.54;98616.81;6335575;20;2769165;-59
2023/03/25 03:29:52;;;;;;;;;13.00;10.50;;;;;14.19;86.68;98610.00;6276082;20;2792042;-59
2023/03/25 03:32:38;;;;;;;;;9.50;9.50;;;;;14.13;87.11;98612.41;6282051;20;2775739;-59
2023/03/25 03:36:01;;;;;;;;;9.00;9.00;;;;;14.02;87.94;98613.44;6283609;20;2737805;-58
2023/03/25 03:39:23;;;;;;;;;9.67;9.67;;;;;13.83;89.72;98615.13;6277875;20;2768114;-59
2023/03/25 03:42:01;;;;;;;;;11.50;10.50;;;;;13.87;89.83;98615.69;6305859;20;2791922;-59
2023/03/25 03:44:36;;;;;;;;;10.80;10.60;;;;;13.94;89.72;98616.84;6303259;20;2781561;-59
2023/03/25 03:47:25;;;;;;;;;11.00;11.00;;;;;13.85;90.18;98612.31;6306278;20;2791956;-59
2023/03/25 03:50:06;;;;;;;;;9.00;9.00;;;;;13.91;89.69;98609.03;6288264;20;2733625;-58
2023/03/25 03:53:32;;;;;;;;;9.20;8.20;;;;;13.84;89.87;98619.53;6302469;20;2757605;-59
2023/03/25 03:56:40;;;;;;;;;10.50;10.00;;;;;13.82;89.90;98617.97;6277040;20;2774255;-59
2023/03/25 03:59:26;;;;;;;;;10.50;9.00;;;;;13.71;89.19;98629.72;6281829;20;2763823;-56
2023/03/25 04:02:02;;;;;;;;;9.00;7.50;;;;;13.73;89.04;98643.94;6283426;20;2749244;-59
2023/03/25 04:04:33;;;;;;;;;7.00;7.00;;;;;13.75;88.94;98651.91;6281484;20;2741970;-59
2023/03/25 04:07:37;;;;;;;;;6.50;6.50;;;;;13.78;89.05;98654.31;6282382;20;2731530;-59
2023/03/25 04:10:33;;;;;;;;;6.50;6.50;;;;;13.68;89.03;98646.22;6282929;20;2738809;-59
2023/03/25 04:13:09;;;;;;;;;8.00;8.00;;;;;13.72;89.06;98658.44;6282210;20;2746152;-59
2023/03/25 04:15:38;;;;;;;;;6.50;6.50;;;;;13.52;90.07;98656.69;6280064;20;2741501;-59
2023/03/25 04:18:08;;;;;;;;;6.60;6.60;;;;;13.55;89.63;98661.81;6307797;20;2746151;-59
2023/03/25 04:20:36;;;;;;;;;10.00;8.50;;;;;13.49;90.00;98667.75;6313240;20;2761719;-59
2023/03/25 04:23:04;;;;;;;;;8.00;8.00;;;;;13.47;90.20;98675.13;6285113;20;2746118;-59
2023/03/25 04:25:32;;;;;;;;;12.00;12.00;;;;;13.40;90.63;98672.09;6280287;20;2790944;-58
2023/03/25 04:28:00;;;;;;;;;11.00;11.00;;;;;13.35;91.39;98677.94;6279151;20;2794183;-59
2023/03/25 04:30:29;;;;;;;;;9.00;6.50;;;;;13.38;91.79;98676.81;6281463;20;2733657;-59
2023/03/25 04:32:59;;;;;;;;;9.00;8.00;;;;;13.30;92.54;98684.72;6283598;20;2756584;-59
2023/03/25 04:35:31;;;;;;;;;11.00;10.67;;;;;13.15;95.21;98686.91;6281245;20;2788984;-59
2023/03/25 04:38:00;;;;;;;;;10.00;9.50;;;;;12.98;97.84;98698.28;6313928;20;2780487;-58
2023/03/25 04:40:29;;;;;;;;;3.75;3.75;;;;;12.80;99.38;98700.78;6306301;20;1810791;-58
2023/03/25 04:42:59;;;;;;;;;9.40;8.40;;;;;12.65;100.00;98716.41;6342704;20;2754520;-57
2023/03/25 04:45:27;;;;;;;;;9.50;9.50;;;;;12.50;100.00;98716.72;6280084;20;2773350;-55
2023/03/25 04:47:56;;;;;;;;;13.67;12.00;;;;;12.37;100.00;98729.50;6284860;20;2792130;-54
2023/03/25 04:50:28;;;;;;;;;10.00;10.00;;;;;12.35;100.00;98727.94;6316106;20;2784656;-57
2023/03/25 04:52:59;;;;;;;;;12.67;11.00;;;;;12.23;100.00;98732.53;6283174;20;2788804;-56
2023/03/25 04:55:28;;;;;;;;;10.00;10.00;;;;;12.30;100.00;98739.09;6317258;20;2794035;-54
2023/03/25 04:57:58;;;;;;;;;12.00;12.00;;;;;12.33;100.00;98744.22;6310167;20;2790996;-57
2023/03/25 05:00:26;;;;;;;;;10.00;8.50;;;;;12.28;100.00;98741.91;6283468;20;2770087;-57
2023/03/25 05:02:55;;;;;;;;;12.67;12.67;;;;;12.23;100.00;98740.59;6284796;20;2784803;-57
2023/03/25 05:05:25;;;;;;;;;13.00;11.33;;;;;12.13;100.00;98735.13;6317469;20;2785729;-58
2023/03/25 05:07:56;;;;;;;;;12.00;12.00;;;;;12.24;100.00;98739.59;6316102;20;3524231;-57
2023/03/25 05:10:28;;;;;;;;;11.00;10.00;;;;;12.18;100.00;98740.13;6316953;20;2789875;-56
2023/03/25 05:13:06;;;;;;;;;11.00;11.00;;;;;12.17;100.00;98749.19;6287136;20;2786993;-56
2023/03/25 05:15:40;;;;;;;;;11.00;10.80;;;;;12.14;100.00;98746.72;6306282;20;2788920;-57
2023/03/25 05:18:13;;;;;;;;;11.00;10.50;;;;;12.00;100.00;98742.50;6283017;20;2796222;-55
2023/03/25 05:20:49;;;;;;;;;10.20;10.20;;;;;11.93;100.00;98752.03;6310236;20;2794051;-57
2023/03/25 05:23:20;;;;;;;;;12.33;12.33;;;;;12.05;100.00;98746.50;6287771;20;3523359;-57
2023/03/25 05:25:50;;;;;;;;;10.00;10.00;;;;;12.19;100.00;98747.19;6315409;20;2789905;-58
2023/03/25 05:28:19;;;;;;;;;12.00;10.00;;;;;12.08;100.00;98753.47;6283392;20;2790946;-54
2023/03/25 05:30:47;;;;;;;;;9.50;9.50;;;;;12.20;100.00;98746.25;6288822;20;2771254;-57
2023/03/25 05:33:17;;;;;;;;;11.00;10.40;;;;;12.23;100.00;98759.44;6309483;20;2794164;-56
2023/03/25 05:35:47;;;;;;;;;13.00;11.00;;;;;12.19;100.00;98760.66;6286060;20;2791025;-57
2023/03/25 05:38:17;;;;;;;;;10.00;10.00;;;;;12.27;100.00;98755.50;6314167;20;2778438;-56
2023/03/25 05:40:49;;;;;;;;;8.43;7.43;;;;;12.20;100.00;98757.00;6328680;20;3447179;-57
2023/03/25 05:43:21;;;;;;;;;12.00;12.00;;;;;12.22;100.00;98758.59;6317425;20;2797125;-55
2023/03/25 05:45:49;;;;;;;;;8.00;8.00;;;;;12.28;100.00;98758.06;6289631;20;2748303;-57
2023/03/25 05:48:17;;;;;;;;;13.00;11.00;;;;;12.27;100.00;98759.06;6284553;20;2787135;-57
2023/03/25 05:50:45;;;;;;;;;11.00;11.00;;;;;12.20;100.00;98774.00;6283658;20;2796145;-57
2023/03/25 05:53:15;;;;;;;;;12.00;12.00;;;;;12.25;100.00;98777.16;6285061;20;2790886;-56
2023/03/25 05:55:43;;;;;;;;;12.50;12.50;;;;;12.23;100.00;98778.28;6288603;20;2809637;-58
2023/03/25 05:58:12;;;;;;;;;16.67;16.67;;;;;12.25;100.00;98779.00;6284352;20;3566933;-56
2023/03/25 06:00:39;;;;;;;;;15.00;13.50;;;;;12.18;100.00;98783.19;6314776;20;2793180;-55
2023/03/25 06:03:08;;;;;;;;;15.00;14.00;;;;;12.24;100.00;98780.84;6285227;20;3544201;-57
2023/03/25 06:05:41;;;;;;;;;10.67;10.67;;;;;12.16;100.00;98785.97;6314924;20;2787847;-55
2023/03/25 06:08:10;;;;;;;;;11.67;10.33;;;;;12.25;100.00;98781.69;6315701;20;3516313;-57
2023/03/25 06:10:39;;;;;;;;;15.00;15.00;;;;;12.34;100.00;98789.00;6313636;20;3523218;-56
2023/03/25 06:13:07;;;;;;;;;14.00;13.00;;;;;12.33;100.00;98786.44;6317157;20;2800258;-56
2023/03/25 06:15:38;;;;;;;;;16.50;15.00;;;;;12.24;100.00;98779.97;6283890;20;2827355;-55
2023/03/25 06:18:09;;;;;;;;;18.00;15.00;;;;;12.33;100.00;98784.59;6278790;20;3539867;-56
2023/03/25 06:20:38;;;;;;;;;19.00;17.67;;;;;12.37;100.00;98777.13;6282102;20;3556613;-56
2023/03/25 06:23:06;;;;;;;;;18.50;17.00;;;;;12.31;100.00;98783.88;6314638;20;2492009;-56
2023/03/25 06:25:34;;;;;;;;;16.00;16.00;;;;;12.28;100.00;98778.75;6283870;20;2825319;-56
2023/03/25 06:28:03;;;;;;;;;14.33;13.33;;;;;12.39;100.00;98778.69;6283572;20;3525250;-57
2023/03/25 06:30:32;;;;;;;;;19.67;17.00;;;;;12.48;100.00;98774.38;6312538;20;3577309;-55
2023/03/25 06:33:01;;;;;;;;;20.00;18.50;;;;;12.30;100.00;98782.16;6283772;20;2835054;-55
2023/03/25 06:35:30;;;;;;;;;18.00;17.00;;;;;12.39;100.00;98792.16;6282468;20;2487770;-57
2023/03/25 06:37:57;;;;;;;;;18.00;18.00;;;;;12.28;100.00;98787.66;6282553;20;2487956;-56
2023/03/25 06:40:27;;;;;;;;;17.50;17.00;;;;;12.37;100.00;98790.56;6282704;20;2835694;-56
2023/03/25 06:42:54;;;;;;;;;17.00;15.00;;;;;12.46;100.00;98790.66;6285880;20;2819020;-57
2023/03/25 06:45:22;;;;;;;;;15.00;15.00;;;;;12.43;100.00;98788.25;6283126;20;2500353;-56
2023/03/25 06:47:51;;;;;;;;;16.50;16.50;;;;;12.36;100.00;98795.09;6283078;20;2833657;-55
2023/03/25 06:50:19;;;;;;;;;16.00;16.00;;;;;12.59;100.00;98798.56;6280510;20;2492039;-53
2023/03/25 06:52:48;;;;;;;;;15.00;12.33;;;;;12.61;100.00;98802.00;6281454;20;3532631;-55
2023/03/25 06:55:16;;;;;;;;;17.33;15.00;;;;;12.64;100.00;98790.97;6313110;20;3550288;-57
2023/03/25 06:57:45;;;;;;;;;15.00;15.00;;;;;12.70;100.00;98794.97;6314245;20;3525340;-57
2023/03/25 07:00:19;;;;;;;;;14.33;12.67;;;;;12.78;100.00;98797.03;6281676;20;3537856;-55
2023/03/25 07:02:47;;;;;;;;;13.00;13.00;;;;;12.52;100.00;98798.22;6277237;20;3514880;-56
2023/03/25 07:05:16;;;;;;;;;19.50;16.50;;;;;12.60;100.00;98792.19;6313549;20;2709662;-56
2023/03/25 07:07:44;;;;;;;;;16.50;14.00;;;;;12.65;100.00;98791.81;6316765;20;2813830;-56
2023/03/25 07:10:14;;;;;;;;;10.00;10.00;;;;;12.43;100.00;98782.84;6288659;20;2774270;-57
2023/03/25 07:12:42;;;;;;;;;11.00;11.00;;;;;12.56;100.00;98792.56;6284415;20;2789875;-56
2023/03/25 07:15:10;;;;;;;;;15.67;13.00;;;;;12.69;100.00;98804.91;6286230;20;3540901;-57
2023/03/25 07:17:41;;;;;;;;;17.00;15.67;;;;;12.64;100.00;98798.19;6314977;20;3549245;-56
2023/03/25 07:20:11;;;;;;;;;18.00;15.67;;;;;12.82;100.00;98804.72;6283400;20;3558636;-56
2023/03/25 07:22:43;;;;;;;;;21.00;18.00;;;;;12.92;100.00;98807.47;6314913;20;3570043;-57
2023/03/25 07:25:11;;;;;;;;;18.00;13.00;;;;;12.92;100.00;98800.22;6288205;20;2819034;-55
2023/03/25 07:27:40;;;;;;;;;14.00;14.00;;;;;13.23;100.00;98808.38;6283084;20;3530559;-56
2023/03/25 07:30:09;;;;;;;;;12.00;12.00;;;;;13.29;100.00;98807.88;6315587;20;3522157;-57
2023/03/25 07:32:37;;;;;;;;;10.00;10.00;;;;;13.32;100.00;98813.00;6315513;20;2789899;-57
2023/03/25 07:35:08;;;;;;;;;10.00;10.00;;;;;13.52;100.00;98813.09;6311292;20;2786811;-57
2023/03/25 07:37:39;;;;;;;;;7.43;7.43;;;;;13.69;99.90;98808.91;6328211;20;3453440;-57
2023/03/25 07:40:08;;;;;;;;;8.00;8.00;;;;;13.69;100.00;98808.91;6315008;20;2750288;-58
2023/03/25 07:42:37;;;;;;;;;11.50;11.50;;;;;13.99;98.64;98806.19;6289178;20;2799282;-58
2023/03/25 07:45:06;;;;;;;;;10.00;9.50;;;;;14.32;96.08;98805.97;6291156;20;2766953;-58
2023/03/25 07:47:34;;;;;;;;;9.00;9.00;;;;;14.77;93.86;98808.16;6284719;20;2754531;-58
2023/03/25 07:50:05;;;;;;;;;7.00;7.00;;;;;14.63;94.07;98802.19;6313482;20;2733643;-58
2023/03/25 07:52:35;;;;;;;;;10.40;9.00;;;;;15.12;93.82;98816.50;6339114;20;2764898;-58
2023/03/25 07:55:03;;;;;;;;;9.50;9.50;;;;;15.20;91.46;98817.66;6286919;20;2771168;-57
2023/03/25 07:57:31;;;;;;;;;10.00;9.00;;;;;14.97;91.73;98817.94;6290126;20;2762840;-61
2023/03/25 07:59:59;;;;;;;;;11.00;10.00;;;;;14.39;92.25;98823.31;6283948;20;2784725;-59
2023/03/25 08:02:26;;;;;;;;;8.00;7.00;;;;;14.37;91.34;98828.00;6288368;20;2748213;-59
2023/03/25 08:04:56;;;;;;;;;6.50;5.00;;;;;14.03;90.89;98820.25;6286936;20;2750284;-59
2023/03/25 08:07:24;;;;;;;;;7.00;7.00;;;;;13.94;91.12;98826.47;6288775;20;2746155;-59
2023/03/25 08:09:51;;;;;;;;;7.00;5.00;;;;;13.90;91.05;98822.34;6283275;20;2737814;-59
2023/03/25 08:12:19;;;;;;;;;7.00;7.00;;;;;14.01;90.80;98830.34;6291505;20;2629585;-59
2023/03/25 08:14:47;;;;;;;;;7.00;7.00;;;;;14.34;89.35;98828.28;6272874;20;2742028;-59
2023/03/25 08:17:15;;;;;;;;;7.00;7.00;;;;;14.40;87.88;98825.00;6279984;20;2743038;-57
2023/03/25 08:19:43;;;;;;;;;5.00;5.00;;;;;14.04;89.40;98816.56;6284232;20;2750293;-56
2023/03/25 08:22:11;;;;;;;;;7.00;7.00;;;;;14.11;88.76;98814.16;6281004;20;2736805;-56
2023/03/25 08:24:42;;;;;;;;;5.29;5.29;;;;;14.11;88.53;98815.00;6322665;20;3452374;-57
2023/03/25 08:27:09;;;;;;;;;6.50;6.50;;;;;14.21;88.39;98810.47;6312739;20;2748345;-57
2023/03/25 08:29:46;;;;;;;;;8.00;7.00;;;;;14.63;86.51;98810.28;6281563;20;2771124;-57
2023/03/25 08:32:13;;;;;;;;;7.00;7.00;;;;;14.97;85.44;98814.41;6283492;20;2737849;-58
2023/03/25 08:34:41;;;;;;;;;6.00;6.00;;;;;14.83;85.59;98810.28;6280995;20;2738918;-58
2023/03/25 08:37:10;;;;;;;;;4.00;4.00;;;;;14.97;82.97;98819.81;6278807;20;2746210;-57
2023/03/25 08:39:38;;;;;;;;;7.00;7.00;;;;;15.41;83.06;98815.59;6283235;20;2740120;-58
2023/03/25 08:42:08;;;;;;;;;4.50;4.50;;;;;15.39;80.40;98812.19;6278168;20;2743026;-57
2023/03/25 08:44:36;;;;;;;;;5.00;5.00;;;;;15.90;80.05;98813.56;6284526;20;2752396;-58
2023/03/25 08:47:04;;;;;;;;;4.00;4.00;;;;;16.05;78.10;98819.34;6280285;20;2750335;-58
2023/03/25 08:49:32;;;;;;;;;5.00;4.00;;;;;15.65;77.13;98806.13;6283705;20;2752385;-54
2023/03/25 08:52:00;;;;;;;;;0.67;0.00;;;;;15.32;79.08;98811.06;6284449;20;2698296;-57
2023/03/25 08:54:29;;;;;;;;;4.00;4.00;;;;;15.40;79.49;98819.28;6282293;20;2752455;-57
2023/03/25 08:57:00;;;;;;;;;7.00;6.14;;;;;16.70;78.60;98813.81;6326865;20;3460244;-58
2023/03/25 08:59:28;;;;;;;;;6.00;5.00;;;;;16.78;74.70;98816.63;6312205;20;2742996;-58
2023/03/25 09:01:56;;;;;;;;;5.00;4.00;;;;;16.46;74.68;98811.72;6283787;20;2754525;-57
2023/03/25 09:04:27;;;;;;;;;4.00;4.00;;;;;16.57;72.90;98811.47;6285002;20;2756537;-58
2023/03/25 09:06:55;;;;;;;;;3.00;3.00;;;;;17.01;71.36;98810.69;6282528;20;2755609;-58
2023/03/25 09:09:39;;;;;;;;;3.00;3.00;;;;;16.18;70.94;98809.00;6285438;20;2754612;-58
2023/03/25 09:12:07;;;;;;;;;4.50;4.00;;;;;16.48;68.74;98808.81;6282578;20;2754874;-58
2023/03/25 09:14:35;;;;;;;;;4.00;4.00;;;;;16.66;67.87;98806.97;6282658;20;2752378;-57
2023/03/25 09:17:04;;;;;;;;;5.50;5.50;;;;;17.00;66.15;98807.13;6280115;20;2743069;-56
2023/03/25 09:19:36;;;;;;;;;3.00;3.00;;;;;17.14;64.78;98804.88;6280760;20;2746117;-57
2023/03/25 09:22:06;;;;;;;;;4.00;4.00;;;;;16.95;65.94;98805.91;6278926;20;2753415;-55
2023/03/25 09:24:34;;;;;;;;;3.50;3.50;;;;;17.09;64.93;98806.22;6287100;20;2742987;-59
2023/03/25 09:27:03;;;;;;;;;4.00;4.00;;;;;17.46;66.61;98807.81;6289643;20;2754470;-57
2023/03/25 09:29:31;;;;;;;;;3.00;3.00;;;;;16.48;64.19;98798.81;6289940;20;2752457;-57
2023/03/25 09:31:59;;;;;;;;;3.00;3.00;;;;;16.67;64.50;98808.69;6290664;20;2738853;-58
2023/03/25 09:34:28;;;;;;;;;3.00;2.00;;;;;16.40;62.90;98805.03;6289734;20;2740947;-58
2023/03/25 09:36:56;;;;;;;;;3.00;3.00;;;;;17.13;60.67;98800.47;6289314;20;2746185;-59
2023/03/25 09:39:24;;;;;;;;;5.00;3.00;;;;;17.14;61.49;98811.16;6286757;20;2744098;-57
2023/03/25 09:42:26;;;;;;;;;4.50;4.50;;;;;17.23;62.95;98810.19;6282628;20;2753584;-57
2023/03/25 09:45:30;;;;;;;;;3.00;3.00;;;;;17.58;62.86;98805.66;6289682;20;2731723;-59
2023/03/25 09:48:29;;;;;;;;;10.00;10.00;;;;;17.88;62.14;98803.50;6290035;20;2785686;-58
2023/03/25 09:51:24;;;;;;;;;3.50;3.50;;;;;17.80;61.13;98806.16;6283019;20;2756644;-59
2023/03/25 09:54:25;;;;;;;;;15.33;15.33;;;;;18.37;58.84;98820.81;6286901;20;2825339;-59
2023/03/25 09:57:01;;;;;;;;;9.00;7.80;;;;;18.65;57.44;98810.50;6339001;20;2756559;-59
2023/03/25 09:59:47;;;;;;;;;7.00;5.50;;;;;18.39;57.06;98812.50;6286131;20;2735118;-58
2023/03/25 10:02:59;;;;;;;;;6.00;6.00;;;;;18.46;58.13;98808.13;6309639;20;2741071;-58
2023/03/25 10:06:18;;;;;;;;;4.00;3.00;;;;;18.26;56.70;98809.41;6316358;20;2741946;-58
2023/03/25 10:09:20;;;;;;;;;2.00;2.00;;;;;17.75;56.41;98804.75;6312543;20;2754498;-59
2023/03/25 10:12:45;;;;;;;;;2.67;2.67;;;;;18.64;54.07;98811.53;6315519;20;2736812;-58
2023/03/25 10:15:38;;;;;;;;;2.00;2.00;;;;;18.16;53.58;98823.97;6314815;20;2741976;-47
2023/03/25 10:19:16;;;;;;;;;2.00;2.00;;;;;18.80;52.32;98826.19;6320558;20;2743029;-48
2023/03/25 10:22:15;;;;;;;;;1.00;1.00;;;;;18.12;53.14;98817.19;6314521;20;2721111;-47
2023/03/25 10:25:00;;;;;;;;;0.00;0.00;;;;;17.96;50.65;98817.13;6319727;20;2734107;-48
2023/03/25 10:27:45;;;;;;;;;5.00;2.00;;;;;18.28;49.00;98827.25;6313967;20;2756522;-47
2023/03/25 10:30:45;;;;;;;;;3.00;3.00;;;;;18.51;50.15;98832.06;6312560;20;2752397;-46
2023/03/25 10:33:36;;;;;;;;;5.00;3.00;;;;;18.70;50.90;98825.50;6313579;20;2756521;-50
2023/03/25 10:36:16;;;;;;;;;3.33;3.00;;;;;19.06;49.64;98809.72;6315021;20;2751332;-46
2023/03/25 10:38:55;;;;;;;;;2.00;2.00;;;;;18.53;51.38;98828.16;6315386;20;2752361;-47
2023/03/25 10:41:36;;;;;;;;;2.33;2.33;;;;;19.17;50.50;98844.78;6314016;20;2727386;-47
2023/03/25 10:44:12;;;;;;;;;3.00;1.60;;;;;19.42;51.44;98826.53;6340135;20;2744024;-46
2023/03/25 10:47:03;;;;;;;;;2.00;2.00;;;;;18.17;53.47;98836.56;6316639;20;2752403;-44
2023/03/25 10:49:37;;;;;;;;;3.40;3.40;;;;;18.57;52.99;98824.09;6338484;20;2744061;-44
2023/03/25 10:52:06;;;;;;;;;3.00;3.00;;;;;19.00;51.76;98832.16;6313946;20;2751322;-45
2023/03/25 10:54:41;;;;;;;;;3.00;3.00;;;;;19.07;51.49;98825.88;6314734;20;2740903;-44
2023/03/25 10:57:23;;;;;;;;;4.00;4.00;;;;;19.44;51.42;98818.19;6312690;20;2756535;-44
2023/03/25 11:00:05;;;;;;;;;1.33;1.00;;;;;19.79;50.30;98819.69;6318331;20;2733701;-44
2023/03/25 11:02:35;;;;;;;;;3.40;3.40;;;;;19.25;48.97;98824.88;6337916;20;2736830;-45
2023/03/25 11:05:07;;;;;;;;;2.00;0.33;;;;;19.22;49.44;98819.75;6316074;20;2727373;-54
2023/03/25 11:07:41;;;;;;;;;1.67;1.67;;;;;19.02;49.75;98825.53;6312599;20;2744081;-52
2023/03/25 11:10:34;;;;;;;;;3.00;3.00;;;;;18.29;51.86;98822.66;6306476;20;2737769;-53
2023/03/25 11:13:03;;;;;;;;;3.00;2.00;;;;;18.23;51.82;98821.47;6318722;20;2752405;-53
2023/03/25 11:15:36;;;;;;;;;4.00;4.00;;;;;18.33;51.23;98829.47;6314486;20;2752828;-53
2023/03/25 11:18:26;;;;;;;;;3.67;2.00;;;;;18.35;51.39;98822.00;6318688;20;2726336;-53
2023/03/25 11:21:02;;;;;;;;;2.00;0.00;;;;;18.19;50.96;98833.66;6315325;20;2727403;-56
2023/03/25 11:23:42;;;;;;;;;4.00;4.00;;;;;18.29;50.46;98834.38;6289314;20;2750435;-52
2023/03/25 11:26:25;;;;;;;;;3.00;3.00;;;;;18.31;50.60;98839.66;6286699;20;2744081;-54
2023/03/25 11:29:20;;;;;;;;;3.00;3.00;;;;;18.04;50.97;98830.72;6288380;20;2752601;-54
2023/03/25 11:32:15;;;;;;;;;3.00;3.00;;;;;17.81;52.33;98835.88;6306190;20;2744089;-53
2023/03/25 11:34:49;;;;;;;;;3.50;3.50;;;;;17.57;52.64;98828.41;6313710;20;2750302;-54
2023/03/25 11:37:23;;;;;;;;;6.00;5.00;;;;;17.85;52.62;98825.53;6284940;20;2748805;-54
2023/03/25 11:39:54;;;;;;;;;5.00;5.00;;;;;17.81;53.38;98832.31;6289640;20;2737856;-54
2023/03/25 11:42:41;;;;;;;;;4.00;4.00;;;;;17.68;52.35;98828.13;6287905;20;2738953;-52
2023/03/25 11:45:36;;;;;;;;;5.00;5.00;;;;;17.93;51.62;98818.28;6310160;20;2734817;-55
2023/03/25 11:48:17;;;;;;;;;5.40;5.40;;;;;17.83;51.71;98816.72;6338197;20;2731574;-54
2023/03/25 11:50:57;;;;;;;;;7.20;7.00;;;;;17.72;51.77;98815.94;6338313;20;2735837;-55